sensor_id;sensor_type;location;lat;lon;timestamp;temperature;humidity
7588;DHT22;3835;48.850;8.938;2023-04-16T00:01:47;6.50;99.90
7588;DHT22;3835;48.850;8.938;2023-04-16T00:04:13;6.50;99.90
7588;DHT22;3835;48.850;8.938;2023-04-16T00:06:41;6.50;99.90
7588;DHT22;3835;48.850;8.938;2023-04-16T00:09:07;6.50;99.90
7588;DHT22;3835;48.850;8.938;2023-04-16T00:11:35;6.50;99.90
7588;DHT22;3835;48.850;8.938;2023-04-16T00:14:02;6.50;99.90
7588;DHT22;3835;48.850;8.938;2023-04-16T00:16:29;6.50;99.90
7588;DHT22;3835;48.850;8.938;2023-04-16T00:18:56;6.50;99.90
7588;DHT22;3835;48.850;8.938;2023-04-16T00:21:23;6.50;99.90
7588;DHT22;3835;48.850;8.938;2023-04-16T00:23:50;6.50;99.90
7588;DHT22;3835;48.850;8.938;2023-04-16T00:26:17;6.40;99.90
7588;DHT22;3835;48.850;8.938;2023-04-16T00:28:45;6.50;99.90
7588;DHT22;3835;48.850;8.938;2023-04-16T00:31:12;6.50;99.90
7588;DHT22;3835;48.850;8.938;2023-04-16T00:33:39;6.40;99.90
7588;DHT22;3835;48.850;8.938;2023-04-16T00:36:06;6.40;99.90
7588;DHT22;3835;48.850;8.938;2023-04-16T00:38:32;6.50;99.90
7588;DHT22;3835;48.850;8.938;2023-04-16T00:40:59;6.40;99.90
7588;DHT22;3835;48.850;8.938;2023-04-16T00:43:26;6.50;99.90
7588;DHT22;3835;48.850;8.938;2023-04-16T00:45:56;6.50;99.90
7588;DHT22;3835;48.850;8.938;2023-04-16T00:48:22;6.50;99.90
7588;DHT22;3835;48.850;8.938;2023-04-16T00:50:52;6.50;99.90
7588;DHT22;3835;48.850;8.938;2023-04-16T00:53:20;6.50;99.90
7588;DHT22;3835;48.850;8.938;2023-04-16T00:55:46;6.40;99.90
7588;DHT22;3835;48.850;8.938;2023-04-16T00:58:13;6.40;99.90
7588;DHT22;3835;48.850;8.938;2023-04-16T01:00:40;6.50;99.90
7588;DHT22;3835;48.850;8.938;2023-04-16T01:03:08;6.50;99.90
7588;DHT22;3835;48.850;8.938;2023-04-16T01:05:35;6.50;99.90
7588;DHT22;3835;48.850;8.938;2023-04-16T01:08:02;6.40;99.90
7588;DHT22;3835;48.850;8.938;2023-04-16T01:10:29;6.50;99.90
7588;DHT22;3835;48.850;8.938;2023-04-16T01:12:55;6.40;99.90
7588;DHT22;3835;48.850;8.938;2023-04-16T01:15:22;6.50;99.90
7588;DHT22;3835;48.850;8.938;2023-04-16T01:17:49;6.50;99.90
7588;DHT22;3835;48.850;8.938;2023-04-16T01:20:18;6.50;99.90
7588;DHT22;3835;48.850;8.938;2023-04-16T01:22:46;6.40;99.90
7588;DHT22;3835;48.850;8.938;2023-04-16T01:25:13;6.40;99.90
7588;DHT22;3835;48.850;8.938;2023-04-16T01:27:41;6.50;99.90
7588;DHT22;3835;48.850;8.938;2023-04-16T01:30:08;6.40;99.90
7588;DHT22;3835;48.850;8.938;2023-04-16T01:32:35;6.40;99.90
7588;DHT22;3835;48.850;8.938;2023-04-16T01:35:02;6.40;99.90
7588;DHT22;3835;48.850;8.938;2023-04-16T01:37:29;6.50;99.90
7588;DHT22;3835;48.850;8.938;2023-04-16T01:39:57;6.40;99.90
7588;DHT22;3835;48.850;8.938;2023-04-16T01:42:24;6.40;99.90
7588;DHT22;3835;48.850;8.938;2023-04-16T01:44:51;6.40;99.90
7588;DHT22;3835;48.850;8.938;2023-04-16T01:47:18;6.40;99.90
7588;DHT22;3835;48.850;8.938;2023-04-16T01:49:45;6.40;99.90
7588;DHT22;3835;48.850;8.938;2023-04-16T01:52:12;6.40;99.90
7588;DHT22;3835;48.850;8.938;2023-04-16T01:54:39;6.50;99.90
7588;DHT22;3835;48.850;8.938;2023-04-16T01:57:07;6.40;99.90
7588;DHT22;3835;48.850;8.938;2023-04-16T01:59:34;6.40;99.90
7588;DHT22;3835;48.850;8.938;2023-04-16T02:02:02;6.40;99.90
7588;DHT22;3835;48.850;8.938;2023-04-16T02:04:31;6.40;99.90
7588;DHT22;3835;48.850;8.938;2023-04-16T02:06:58;6.40;99.90
7588;DHT22;3835;48.850;8.938;2023-04-16T02:09:24;6.40;99.90
7588;DHT22;3835;48.850;8.938;2023-04-16T02:11:51;6.40;99.90
7588;DHT22;3835;48.850;8.938;2023-04-16T02:14:19;6.40;99.90
7588;DHT22;3835;48.850;8.938;2023-04-16T02:16:49;6.40;99.90
7588;DHT22;3835;48.850;8.938;2023-04-16T02:19:17;6.40;99.90
7588;DHT22;3835;48.850;8.938;2023-04-16T02:21:43;6.40;99.90
7588;DHT22;3835;48.850;8.938;2023-04-16T02:24:10;6.40;99.90
7588;DHT22;3835;48.850;8.938;2023-04-16T02:26:37;6.40;99.90
7588;DHT22;3835;48.850;8.938;2023-04-16T02:29:04;6.40;99.90
7588;DHT22;3835;48.850;8.938;2023-04-16T02:31:32;6.40;99.90
7588;DHT22;3835;48.850;8.938;2023-04-16T02:33:59;6.40;99.90
7588;DHT22;3835;48.850;8.938;2023-04-16T02:36:25;6.40;99.90
7588;DHT22;3835;48.850;8.938;2023-04-16T02:38:52;6.40;99.90
7588;DHT22;3835;48.850;8.938;2023-04-16T02:41:19;6.40;99.90
7588;DHT22;3835;48.850;8.938;2023-04-16T02:43:46;6.40;99.90
7588;DHT22;3835;48.850;8.938;2023-04-16T02:46:13;6.40;99.90
7588;DHT22;3835;48.850;8.938;2023-04-16T02:48:41;6.40;99.90
7588;DHT22;3835;48.850;8.938;2023-04-16T02:51:08;6.40;99.90
7588;DHT22;3835;48.850;8.938;2023-04-16T02:53:35;6.40;99.90
7588;DHT22;3835;48.850;8.938;2023-04-16T02:56:01;6.40;99.90
7588;DHT22;3835;48.850;8.938;2023-04-16T02:58:28;6.40;99.90
7588;DHT22;3835;48.850;8.938;2023-04-16T03:00:55;6.40;99.90
7588;DHT22;3835;48.850;8.938;2023-04-16T03:03:21;6.30;99.90
7588;DHT22;3835;48.850;8.938;2023-04-16T03:05:50;6.30;99.90
7588;DHT22;3835;48.850;8.938;2023-04-16T03:08:16;6.40;99.90
7588;DHT22;3835;48.850;8.938;2023-04-16T03:10:43;6.40;99.90
7588;DHT22;3835;48.850;8.938;2023-04-16T03:13:10;6.40;99.90
7588;DHT22;3835;48.850;8.938;2023-04-16T03:15:37;6.30;99.90
7588;DHT22;3835;48.850;8.938;2023-04-16T03:18:03;6.30;99.90
7588;DHT22;3835;48.850;8.938;2023-04-16T03:20:30;6.30;99.90
7588;DHT22;3835;48.850;8.938;2023-04-16T03:22:58;6.30;99.90
7588;DHT22;3835;48.850;8.938;2023-04-16T03:25:25;6.40;99.90
7588;DHT22;3835;48.850;8.938;2023-04-16T03:27:52;6.30;99.90
7588;DHT22;3835;48.850;8.938;2023-04-16T03:30:19;6.30;99.90
7588;DHT22;3835;48.850;8.938;2023-04-16T03:32:45;6.30;99.90
7588;DHT22;3835;48.850;8.938;2023-04-16T03:35:12;6.30;99.90
7588;DHT22;3835;48.850;8.938;2023-04-16T03:37:39;6.30;99.90
7588;DHT22;3835;48.850;8.938;2023-04-16T03:40:08;6.30;99.90
7588;DHT22;3835;48.850;8.938;2023-04-16T03:42:35;6.30;99.90
7588;DHT22;3835;48.850;8.938;2023-04-16T03:45:02;6.30;99.90
7588;DHT22;3835;48.850;8.938;2023-04-16T03:47:29;6.30;99.90
7588;DHT22;3835;48.850;8.938;2023-04-16T03:49:56;6.30;99.90
7588;DHT22;3835;48.850;8.938;2023-04-16T03:52:22;6.30;99.90
7588;DHT22;3835;48.850;8.938;2023-04-16T03:54:49;6.30;99.90
7588;DHT22;3835;48.850;8.938;2023-04-16T03:57:17;6.30;99.90
7588;DHT22;3835;48.850;8.938;2023-04-16T03:59:44;6.30;99.90
7588;DHT22;3835;48.850;8.938;2023-04-16T04:02:11;6.30;99.90
7588;DHT22;3835;48.850;8.938;2023-04-16T04:04:38;6.30;99.90
7588;DHT22;3835;48.850;8.938;2023-04-16T04:07:05;6.30;99.90
7588;DHT22;3835;48.850;8.938;2023-04-16T04:09:32;6.30;99.90
7588;DHT22;3835;48.850;8.938;2023-04-16T04:11:59;6.30;99.90
7588;DHT22;3835;48.850;8.938;2023-04-16T04:14:27;6.20;99.90
7588;DHT22;3835;48.850;8.938;2023-04-16T04:16:53;6.20;99.90
7588;DHT22;3835;48.850;8.938;2023-04-16T04:19:20;6.20;99.90
7588;DHT22;3835;48.850;8.938;2023-04-16T04:21:47;6.20;99.90
7588;DHT22;3835;48.850;8.938;2023-04-16T04:24:14;6.20;99.90
7588;DHT22;3835;48.850;8.938;2023-04-16T04:26:40;6.20;99.90
7588;DHT22;3835;48.850;8.938;2023-04-16T04:29:07;6.20;99.90
7588;DHT22;3835;48.850;8.938;2023-04-16T04:31:35;6.20;99.90
7588;DHT22;3835;48.850;8.938;2023-04-16T04:34:02;6.20;99.90
7588;DHT22;3835;48.850;8.938;2023-04-16T04:36:29;6.20;99.90
7588;DHT22;3835;48.850;8.938;2023-04-16T04:38:56;6.10;99.90
7588;DHT22;3835;48.850;8.938;2023-04-16T04:41:23;6.10;99.90
7588;DHT22;3835;48.850;8.938;2023-04-16T04:43:51;6.10;99.90
7588;DHT22;3835;48.850;8.938;2023-04-16T04:46:18;6.10;99.90
7588;DHT22;3835;48.850;8.938;2023-04-16T04:48:46;6.20;99.90
7588;DHT22;3835;48.850;8.938;2023-04-16T04:51:13;6.10;99.90
7588;DHT22;3835;48.850;8.938;2023-04-16T04:53:39;6.10;99.90
7588;DHT22;3835;48.850;8.938;2023-04-16T04:56:06;6.10;99.90
7588;DHT22;3835;48.850;8.938;2023-04-16T04:58:33;6.10;99.90
7588;DHT22;3835;48.850;8.938;2023-04-16T05:01:00;6.10;99.90
7588;DHT22;3835;48.850;8.938;2023-04-16T05:03:27;6.10;99.90
7588;DHT22;3835;48.850;8.938;2023-04-16T05:05:55;6.10;99.90
7588;DHT22;3835;48.850;8.938;2023-04-16T05:08:22;6.10;99.90
7588;DHT22;3835;48.850;8.938;2023-04-16T05:10:48;6.10;99.90
7588;DHT22;3835;48.850;8.938;2023-04-16T05:13:15;6.10;99.90
7588;DHT22;3835;48.850;8.938;2023-04-16T05:15:42;6.10;99.90
7588;DHT22;3835;48.850;8.938;2023-04-16T05:18:09;6.10;99.90
7588;DHT22;3835;48.850;8.938;2023-04-16T05:20:36;6.10;99.90
7588;DHT22;3835;48.850;8.938;2023-04-16T05:23:04;6.10;99.90
7588;DHT22;3835;48.850;8.938;2023-04-16T05:25:31;6.10;99.90
7588;DHT22;3835;48.850;8.938;2023-04-16T05:27:58;6.10;99.90
7588;DHT22;3835;48.850;8.938;2023-04-16T05:30:24;6.10;99.90
7588;DHT22;3835;48.850;8.938;2023-04-16T05:32:51;6.20;99.90
7588;DHT22;3835;48.850;8.938;2023-04-16T05:35:18;6.10;99.90
7588;DHT22;3835;48.850;8.938;2023-04-16T05:37:45;6.10;99.90
7588;DHT22;3835;48.850;8.938;2023-04-16T05:40:13;6.10;99.90
7588;DHT22;3835;48.850;8.938;2023-04-16T05:42:40;6.10;99.90
7588;DHT22;3835;48.850;8.938;2023-04-16T05:45:08;6.10;99.90
7588;DHT22;3835;48.850;8.938;2023-04-16T05:47:35;6.10;99.90
7588;DHT22;3835;48.850;8.938;2023-04-16T05:50:02;6.10;99.90
7588;DHT22;3835;48.850;8.938;2023-04-16T05:52:28;6.10;99.90
7588;DHT22;3835;48.850;8.938;2023-04-16T05:54:55;6.10;99.90
7588;DHT22;3835;48.850;8.938;2023-04-16T05:57:23;6.10;99.90
7588;DHT22;3835;48.850;8.938;2023-04-16T05:59:50;6.10;99.90
7588;DHT22;3835;48.850;8.938;2023-04-16T06:02:17;6.10;99.90
7588;DHT22;3835;48.850;8.938;2023-04-16T06:04:44;6.10;99.90
7588;DHT22;3835;48.850;8.938;2023-04-16T06:07:10;6.10;99.90
7588;DHT22;3835;48.850;8.938;2023-04-16T06:09:37;6.10;99.90
7588;DHT22;3835;48.850;8.938;2023-04-16T06:12:04;6.10;99.90
7588;DHT22;3835;48.850;8.938;2023-04-16T06:14:32;6.10;99.90
7588;DHT22;3835;48.850;8.938;2023-04-16T06:16:59;6.10;99.90
7588;DHT22;3835;48.850;8.938;2023-04-16T06:19:26;6.30;99.90
7588;DHT22;3835;48.850;8.938;2023-04-16T06:21:53;6.10;99.90
7588;DHT22;3835;48.850;8.938;2023-04-16T06:24:20;6.10;99.90
7588;DHT22;3835;48.850;8.938;2023-04-16T06:26:46;6.10;99.90
7588;DHT22;3835;48.850;8.938;2023-04-16T06:29:13;6.10;99.90
7588;DHT22;3835;48.850;8.938;2023-04-16T06:31:41;6.10;99.90
7588;DHT22;3835;48.850;8.938;2023-04-16T06:34:08;6.10;99.90
7588;DHT22;3835;48.850;8.938;2023-04-16T06:36:35;6.20;99.90
7588;DHT22;3835;48.850;8.938;2023-04-16T06:39:02;6.10;99.90
7588;DHT22;3835;48.850;8.938;2023-04-16T06:41:29;6.20;99.90
7588;DHT22;3835;48.850;8.938;2023-04-16T06:43:56;6.20;99.90
7588;DHT22;3835;48.850;8.938;2023-04-16T06:46:22;6.20;99.90
7588;DHT22;3835;48.850;8.938;2023-04-16T06:48:51;6.20;99.90
7588;DHT22;3835;48.850;8.938;2023-04-16T06:51:17;6.20;99.90
7588;DHT22;3835;48.850;8.938;2023-04-16T06:53:45;6.20;99.90
7588;DHT22;3835;48.850;8.938;2023-04-16T06:56:11;6.20;99.90
7588;DHT22;3835;48.850;8.938;2023-04-16T06:58:38;6.20;99.90
7588;DHT22;3835;48.850;8.938;2023-04-16T07:01:05;6.30;99.90
7588;DHT22;3835;48.850;8.938;2023-04-16T07:03:32;6.20;99.90
7588;DHT22;3835;48.850;8.938;2023-04-16T07:06:00;6.30;99.90
7588;DHT22;3835;48.850;8.938;2023-04-16T07:08:27;6.30;99.90
7588;DHT22;3835;48.850;8.938;2023-04-16T07:10:54;6.30;99.90
7588;DHT22;3835;48.850;8.938;2023-04-16T07:13:22;6.30;99.90
7588;DHT22;3835;48.850;8.938;2023-04-16T07:15:49;6.30;99.90
7588;DHT22;3835;48.850;8.938;2023-04-16T07:18:16;6.40;99.90
7588;DHT22;3835;48.850;8.938;2023-04-16T07:20:42;6.30;99.90
7588;DHT22;3835;48.850;8.938;2023-04-16T07:23:11;6.30;99.90
7588;DHT22;3835;48.850;8.938;2023-04-16T07:25:37;6.40;99.90
7588;DHT22;3835;48.850;8.938;2023-04-16T07:28:04;6.40;99.90
7588;DHT22;3835;48.850;8.938;2023-04-16T07:30:34;6.40;99.90
7588;DHT22;3835;48.850;8.938;2023-04-16T07:33:02;6.50;99.90
7588;DHT22;3835;48.850;8.938;2023-04-16T07:35:29;6.50;99.90
7588;DHT22;3835;48.850;8.938;2023-04-16T07:37:56;6.60;99.90
7588;DHT22;3835;48.850;8.938;2023-04-16T07:40:24;6.60;99.90
7588;DHT22;3835;48.850;8.938;2023-04-16T07:42:51;6.50;99.90
7588;DHT22;3835;48.850;8.938;2023-04-16T07:45:18;6.50;99.90
7588;DHT22;3835;48.850;8.938;2023-04-16T07:47:45;6.50;99.90
7588;DHT22;3835;48.850;8.938;2023-04-16T07:50:12;6.50;99.90
7588;DHT22;3835;48.850;8.938;2023-04-16T07:52:39;6.50;99.90
7588;DHT22;3835;48.850;8.938;2023-04-16T07:55:07;6.60;99.90
7588;DHT22;3835;48.850;8.938;2023-04-16T07:57:35;6.60;99.90
7588;DHT22;3835;48.850;8.938;2023-04-16T08:00:03;6.60;99.90
7588;DHT22;3835;48.850;8.938;2023-04-16T08:02:30;6.60;99.90
7588;DHT22;3835;48.850;8.938;2023-04-16T08:04:57;6.60;99.90
7588;DHT22;3835;48.850;8.938;2023-04-16T08:07:24;6.50;99.90
7588;DHT22;3835;48.850;8.938;2023-04-16T08:09:52;6.60;99.90
7588;DHT22;3835;48.850;8.938;2023-04-16T08:12:19;6.60;99.90
7588;DHT22;3835;48.850;8.938;2023-04-16T08:14:47;6.50;99.90
7588;DHT22;3835;48.850;8.938;2023-04-16T08:17:14;6.70;99.90
7588;DHT22;3835;48.850;8.938;2023-04-16T08:19:41;6.60;99.90
7588;DHT22;3835;48.850;8.938;2023-04-16T08:22:09;6.70;99.90
7588;DHT22;3835;48.850;8.938;2023-04-16T08:24:36;6.70;99.90
7588;DHT22;3835;48.850;8.938;2023-04-16T08:27:03;6.80;99.90
7588;DHT22;3835;48.850;8.938;2023-04-16T08:29:30;6.80;99.90
7588;DHT22;3835;48.850;8.938;2023-04-16T08:31:58;6.90;99.90
7588;DHT22;3835;48.850;8.938;2023-04-16T08:34:25;6.90;99.90
7588;DHT22;3835;48.850;8.938;2023-04-16T08:36:52;6.90;99.90
7588;DHT22;3835;48.850;8.938;2023-04-16T08:39:20;7.00;99.90
7588;DHT22;3835;48.850;8.938;2023-04-16T08:41:48;7.00;99.90
7588;DHT22;3835;48.850;8.938;2023-04-16T08:44:20;7.00;99.90
7588;DHT22;3835;48.850;8.938;2023-04-16T08:46:52;7.00;99.90
7588;DHT22;3835;48.850;8.938;2023-04-16T08:49:27;7.00;99.90
7588;DHT22;3835;48.850;8.938;2023-04-16T08:51:56;7.10;99.90
7588;DHT22;3835;48.850;8.938;2023-04-16T08:54:37;7.10;99.90
7588;DHT22;3835;48.850;8.938;2023-04-16T08:57:09;7.10;99.90
7588;DHT22;3835;48.850;8.938;2023-04-16T08:59:38;7.10;99.90
7588;DHT22;3835;48.850;8.938;2023-04-16T09:02:09;7.10;99.90
7588;DHT22;3835;48.850;8.938;2023-04-16T09:04:41;7.20;99.90
7588;DHT22;3835;48.850;8.938;2023-04-16T09:07:10;7.20;99.90
7588;DHT22;3835;48.850;8.938;2023-04-16T09:09:39;7.20;99.90
7588;DHT22;3835;48.850;8.938;2023-04-16T09:12:07;7.20;99.90
7588;DHT22;3835;48.850;8.938;2023-04-16T09:14:35;7.20;99.90
7588;DHT22;3835;48.850;8.938;2023-04-16T09:17:06;7.40;99.90
7588;DHT22;3835;48.850;8.938;2023-04-16T09:19:35;7.50;99.90
7588;DHT22;3835;48.850;8.938;2023-04-16T09:22:04;7.60;99.90
7588;DHT22;3835;48.850;8.938;2023-04-16T09:24:33;7.60;99.90
7588;DHT22;3835;48.850;8.938;2023-04-16T09:27:00;7.50;99.90
7588;DHT22;3835;48.850;8.938;2023-04-16T09:29:36;7.50;99.90
7588;DHT22;3835;48.850;8.938;2023-04-16T09:32:05;7.50;99.90
7588;DHT22;3835;48.850;8.938;2023-04-16T09:34:34;7.50;99.90
7588;DHT22;3835;48.850;8.938;2023-04-16T09:37:15;7.50;99.90
7588;DHT22;3835;48.850;8.938;2023-04-16T09:39:43;7.70;99.90
7588;DHT22;3835;48.850;8.938;2023-04-16T09:42:12;7.70;99.90
7588;DHT22;3835;48.850;8.938;2023-04-16T09:44:41;7.70;99.90
7588;DHT22;3835;48.850;8.938;2023-04-16T09:47:09;7.60;99.90
7588;DHT22;3835;48.850;8.938;2023-04-16T09:49:41;7.80;99.90
7588;DHT22;3835;48.850;8.938;2023-04-16T09:52:12;7.70;99.90
7588;DHT22;3835;48.850;8.938;2023-04-16T09:54:47;7.70;99.90
7588;DHT22;3835;48.850;8.938;2023-04-16T09:57:18;7.60;99.90
7588;DHT22;3835;48.850;8.938;2023-04-16T09:59:52;7.70;99.90
7588;DHT22;3835;48.850;8.938;2023-04-16T10:02:20;7.80;99.90
7588;DHT22;3835;48.850;8.938;2023-04-16T10:04:49;7.60;99.90
7588;DHT22;3835;48.850;8.938;2023-04-16T10:07:17;7.50;99.90
7588;DHT22;3835;48.850;8.938;2023-04-16T10:09:46;7.50;99.90
7588;DHT22;3835;48.850;8.938;2023-04-16T10:12:14;7.50;99.90
7588;DHT22;3835;48.850;8.938;2023-04-16T10:14:41;7.60;99.90
7588;DHT22;3835;48.850;8.938;2023-04-16T10:17:08;7.50;99.90
7588;DHT22;3835;48.850;8.938;2023-04-16T10:19:35;7.40;99.90
7588;DHT22;3835;48.850;8.938;2023-04-16T10:22:02;7.40;99.90
7588;DHT22;3835;48.850;8.938;2023-04-16T10:24:32;7.40;99.90
7588;DHT22;3835;48.850;8.938;2023-04-16T10:27:00;7.40;99.90
7588;DHT22;3835;48.850;8.938;2023-04-16T10:29:29;7.50;99.90
7588;DHT22;3835;48.850;8.938;2023-04-16T10:31:56;7.50;99.90
7588;DHT22;3835;48.850;8.938;2023-04-16T10:34:24;7.50;99.90
7588;DHT22;3835;48.850;8.938;2023-04-16T10:36:52;7.50;99.90
7588;DHT22;3835;48.850;8.938;2023-04-16T10:39:20;7.50;99.90
7588;DHT22;3835;48.850;8.938;2023-04-16T10:41:48;7.60;99.90
7588;DHT22;3835;48.850;8.938;2023-04-16T10:44:18;7.60;99.90
7588;DHT22;3835;48.850;8.938;2023-04-16T10:46:46;7.70;99.90
7588;DHT22;3835;48.850;8.938;2023-04-16T10:49:16;7.80;99.90
7588;DHT22;3835;48.850;8.938;2023-04-16T10:51:52;7.90;99.90
7588;DHT22;3835;48.850;8.938;2023-04-16T10:54:22;7.80;99.90
7588;DHT22;3835;48.850;8.938;2023-04-16T10:56:50;7.90;99.90
7588;DHT22;3835;48.850;8.938;2023-04-16T10:59:19;7.90;99.90
7588;DHT22;3835;48.850;8.938;2023-04-16T11:01:48;8.00;99.90
7588;DHT22;3835;48.850;8.938;2023-04-16T11:04:31;8.00;99.90
7588;DHT22;3835;48.850;8.938;2023-04-16T11:07:03;7.70;99.90
7588;DHT22;3835;48.850;8.938;2023-04-16T11:10:02;7.60;99.90
7588;DHT22;3835;48.850;8.938;2023-04-16T11:12:33;7.80;99.90
7588;DHT22;3835;48.850;8.938;2023-04-16T11:15:04;7.90;99.90
7588;DHT22;3835;48.850;8.938;2023-04-16T11:17:33;7.90;99.90
7588;DHT22;3835;48.850;8.938;2023-04-16T11:20:02;7.70;99.90
7588;DHT22;3835;48.850;8.938;2023-04-16T11:22:29;7.80;99.90
7588;DHT22;3835;48.850;8.938;2023-04-16T11:24:56;7.90;99.90
7588;DHT22;3835;48.850;8.938;2023-04-16T11:27:23;7.90;99.90
7588;DHT22;3835;48.850;8.938;2023-04-16T11:29:58;8.00;99.90
7588;DHT22;3835;48.850;8.938;2023-04-16T11:32:26;8.10;99.90
7588;DHT22;3835;48.850;8.938;2023-04-16T11:34:53;8.20;99.90
7588;DHT22;3835;48.850;8.938;2023-04-16T11:37:20;8.10;99.90
7588;DHT22;3835;48.850;8.938;2023-04-16T11:39:56;8.10;99.90
7588;DHT22;3835;48.850;8.938;2023-04-16T11:42:23;8.10;99.90
7588;DHT22;3835;48.850;8.938;2023-04-16T11:44:52;8.00;99.90
7588;DHT22;3835;48.850;8.938;2023-04-16T11:47:20;8.10;99.90
7588;DHT22;3835;48.850;8.938;2023-04-16T11:49:48;8.00;99.90
7588;DHT22;3835;48.850;8.938;2023-04-16T11:52:24;7.80;99.90
7588;DHT22;3835;48.850;8.938;2023-04-16T11:54:52;7.90;99.90
7588;DHT22;3835;48.850;8.938;2023-04-16T11:57:29;7.70;99.90
7588;DHT22;3835;48.850;8.938;2023-04-16T11:59:57;7.80;99.90
7588;DHT22;3835;48.850;8.938;2023-04-16T12:02:36;7.80;99.90
7588;DHT22;3835;48.850;8.938;2023-04-16T12:05:07;7.70;99.90
7588;DHT22;3835;48.850;8.938;2023-04-16T12:07:51;7.70;99.90
7588;DHT22;3835;48.850;8.938;2023-04-16T12:10:18;7.60;99.90
7588;DHT22;3835;48.850;8.938;2023-04-16T12:12:44;7.60;99.90
7588;DHT22;3835;48.850;8.938;2023-04-16T12:15:11;7.70;99.90
7588;DHT22;3835;48.850;8.938;2023-04-16T12:17:38;7.60;99.90
7588;DHT22;3835;48.850;8.938;2023-04-16T12:20:10;7.60;99.90
7588;DHT22;3835;48.850;8.938;2023-04-16T12:22:38;7.60;99.90
7588;DHT22;3835;48.850;8.938;2023-04-16T12:25:06;7.60;99.90
7588;DHT22;3835;48.850;8.938;2023-04-16T12:27:44;7.60;99.90
7588;DHT22;3835;48.850;8.938;2023-04-16T12:30:12;7.60;99.90
7588;DHT22;3835;48.850;8.938;2023-04-16T12:32:40;7.50;99.90
7588;DHT22;3835;48.850;8.938;2023-04-16T12:35:09;7.70;99.90
7588;DHT22;3835;48.850;8.938;2023-04-16T12:37:36;7.70;99.90
7588;DHT22;3835;48.850;8.938;2023-04-16T12:40:04;7.70;99.90
7588;DHT22;3835;48.850;8.938;2023-04-16T12:42:32;7.60;99.90
7588;DHT22;3835;48.850;8.938;2023-04-16T12:45:01;7.60;99.90
7588;DHT22;3835;48.850;8.938;2023-04-16T12:47:29;7.70;99.90
7588;DHT22;3835;48.850;8.938;2023-04-16T12:49:56;7.70;99.90
7588;DHT22;3835;48.850;8.938;2023-04-16T12:52:24;7.60;99.90
7588;DHT22;3835;48.850;8.938;2023-04-16T12:54:52;7.50;99.90
7588;DHT22;3835;48.850;8.938;2023-04-16T12:57:18;7.70;99.90
7588;DHT22;3835;48.850;8.938;2023-04-16T12:59:45;7.60;99.90
7588;DHT22;3835;48.850;8.938;2023-04-16T13:02:12;7.50;99.90
7588;DHT22;3835;48.850;8.938;2023-04-16T13:04:39;7.50;99.90
7588;DHT22;3835;48.850;8.938;2023-04-16T13:07:06;7.50;99.90
7588;DHT22;3835;48.850;8.938;2023-04-16T13:09:34;7.60;99.90
7588;DHT22;3835;48.850;8.938;2023-04-16T13:12:01;7.60;99.90
7588;DHT22;3835;48.850;8.938;2023-04-16T13:14:28;7.60;99.90
7588;DHT22;3835;48.850;8.938;2023-04-16T13:16:55;7.60;99.90
7588;DHT22;3835;48.850;8.938;2023-04-16T13:19:21;7.60;99.90
7588;DHT22;3835;48.850;8.938;2023-04-16T13:21:48;7.50;99.90
7588;DHT22;3835;48.850;8.938;2023-04-16T13:24:15;7.50;99.90
7588;DHT22;3835;48.850;8.938;2023-04-16T13:26:43;7.50;99.90
7588;DHT22;3835;48.850;8.938;2023-04-16T13:29:10;7.60;99.90
7588;DHT22;3835;48.850;8.938;2023-04-16T13:31:37;7.60;99.90
7588;DHT22;3835;48.850;8.938;2023-04-16T13:34:04;7.60;99.90
7588;DHT22;3835;48.850;8.938;2023-04-16T13:36:31;7.60;99.90
7588;DHT22;3835;48.850;8.938;2023-04-16T13:38:58;7.60;99.90
7588;DHT22;3835;48.850;8.938;2023-04-16T13:41:25;7.80;99.90
7588;DHT22;3835;48.850;8.938;2023-04-16T13:43:54;7.90;99.90
7588;DHT22;3835;48.850;8.938;2023-04-16T13:46:20;7.70;99.90
7588;DHT22;3835;48.850;8.938;2023-04-16T13:48:47;7.60;99.90
7588;DHT22;3835;48.850;8.938;2023-04-16T13:51:14;7.60;99.90
7588;DHT22;3835;48.850;8.938;2023-04-16T13:53:41;7.60;99.90
7588;DHT22;3835;48.850;8.938;2023-04-16T13:56:08;7.60;99.90
7588;DHT22;3835;48.850;8.938;2023-04-16T13:58:36;7.60;99.90
7588;DHT22;3835;48.850;8.938;2023-04-16T14:01:04;7.50;99.90
7588;DHT22;3835;48.850;8.938;2023-04-16T14:03:31;7.50;99.90
7588;DHT22;3835;48.850;8.938;2023-04-16T14:06:00;7.50;99.90
7588;DHT22;3835;48.850;8.938;2023-04-16T14:08:27;7.70;99.90
7588;DHT22;3835;48.850;8.938;2023-04-16T14:10:54;7.70;99.90
7588;DHT22;3835;48.850;8.938;2023-04-16T14:13:21;7.60;99.90
7588;DHT22;3835;48.850;8.938;2023-04-16T14:15:48;7.60;99.90
7588;DHT22;3835;48.850;8.938;2023-04-16T14:18:16;7.50;99.90
7588;DHT22;3835;48.850;8.938;2023-04-16T14:20:43;7.60;99.90
7588;DHT22;3835;48.850;8.938;2023-04-16T14:23:10;7.70;99.90
7588;DHT22;3835;48.850;8.938;2023-04-16T14:25:37;7.60;99.90
7588;DHT22;3835;48.850;8.938;2023-04-16T14:28:04;7.70;99.90
7588;DHT22;3835;48.850;8.938;2023-04-16T14:30:30;7.60;99.90
7588;DHT22;3835;48.850;8.938;2023-04-16T14:32:57;7.60;99.90
7588;DHT22;3835;48.850;8.938;2023-04-16T14:35:25;7.60;99.90
7588;DHT22;3835;48.850;8.938;2023-04-16T14:37:52;7.50;99.90
7588;DHT22;3835;48.850;8.938;2023-04-16T14:40:19;7.60;99.90
7588;DHT22;3835;48.850;8.938;2023-04-16T14:42:46;7.60;99.90
7588;DHT22;3835;48.850;8.938;2023-04-16T14:45:12;7.50;99.90
7588;DHT22;3835;48.850;8.938;2023-04-16T14:47:40;7.50;99.90
7588;DHT22;3835;48.850;8.938;2023-04-16T14:50:11;7.60;99.90
7588;DHT22;3835;48.850;8.938;2023-04-16T14:52:40;7.60;99.90
7588;DHT22;3835;48.850;8.938;2023-04-16T14:55:07;7.60;99.90
7588;DHT22;3835;48.850;8.938;2023-04-16T14:57:34;7.50;99.90
7588;DHT22;3835;48.850;8.938;2023-04-16T15:00:01;7.60;99.90
7588;DHT22;3835;48.850;8.938;2023-04-16T15:02:32;7.60;99.90
7588;DHT22;3835;48.850;8.938;2023-04-16T15:04:59;7.60;99.90
7588;DHT22;3835;48.850;8.938;2023-04-16T15:07:26;7.60;99.90
7588;DHT22;3835;48.850;8.938;2023-04-16T15:09:54;7.60;99.90
7588;DHT22;3835;48.850;8.938;2023-04-16T15:12:21;7.60;99.90
7588;DHT22;3835;48.850;8.938;2023-04-16T15:14:48;7.60;99.90
7588;DHT22;3835;48.850;8.938;2023-04-16T15:17:14;7.60;99.90
7588;DHT22;3835;48.850;8.938;2023-04-16T15:19:41;7.50;99.90
7588;DHT22;3835;48.850;8.938;2023-04-16T15:22:08;7.60;99.90
7588;DHT22;3835;48.850;8.938;2023-04-16T15:24:35;7.60;99.90
7588;DHT22;3835;48.850;8.938;2023-04-16T15:27:03;7.60;99.90
7588;DHT22;3835;48.850;8.938;2023-04-16T15:29:31;7.60;99.90
7588;DHT22;3835;48.850;8.938;2023-04-16T15:31:58;7.50;99.90
7588;DHT22;3835;48.850;8.938;2023-04-16T15:34:25;7.60;99.90
7588;DHT22;3835;48.850;8.938;2023-04-16T15:36:53;7.60;99.90
7588;DHT22;3835;48.850;8.938;2023-04-16T15:39:19;7.60;99.90
7588;DHT22;3835;48.850;8.938;2023-04-16T15:41:46;7.60;99.90
7588;DHT22;3835;48.850;8.938;2023-04-16T15:44:15;7.50;99.90
7588;DHT22;3835;48.850;8.938;2023-04-16T15:46:42;7.50;99.90
7588;DHT22;3835;48.850;8.938;2023-04-16T15:49:08;7.50;99.90
7588;DHT22;3835;48.850;8.938;2023-04-16T15:51:35;7.50;99.90
7588;DHT22;3835;48.850;8.938;2023-04-16T15:54:02;7.60;99.90
7588;DHT22;3835;48.850;8.938;2023-04-16T15:56:30;7.50;99.90
7588;DHT22;3835;48.850;8.938;2023-04-16T15:58:57;7.50;99.90
7588;DHT22;3835;48.850;8.938;2023-04-16T16:01:25;7.60;99.90
7588;DHT22;3835;48.850;8.938;2023-04-16T16:03:52;7.60;99.90
7588;DHT22;3835;48.850;8.938;2023-04-16T16:06:19;7.60;99.90
7588;DHT22;3835;48.850;8.938;2023-04-16T16:08:46;7.60;99.90
7588;DHT22;3835;48.850;8.938;2023-04-16T16:11:13;7.60;99.90
7588;DHT22;3835;48.850;8.938;2023-04-16T16:13:39;7.60;99.90
7588;DHT22;3835;48.850;8.938;2023-04-16T16:16:07;7.60;99.90
7588;DHT22;3835;48.850;8.938;2023-04-16T16:18:36;7.60;99.90
7588;DHT22;3835;48.850;8.938;2023-04-16T16:21:03;7.70;99.90